Eldorado, Argentina
Current Conditions -  °F | °C
As of 11:00 PM on Wednesday 17 Dec 2014 (Local Time) from SARI Reporting Station
Broken Clouds Broken Clouds  
Wind Chill: 68°   Ceiling: 10000
Heat Index: 68°   Visibility: 5mi
Dew Point: 68°   Wind: 6mph
Humidity: 100%   Direction: 140°SE
Pressure: 29.91"   Gusts: NA
Location:  26.4°S, 54.63°W
Report Text: SARI 180200Z 14005KT 8000 FEW005 SCT020 BKN100 20/20 Q1013
Loading
Personal Weather Stations






























Interactive Weather Map New forecast layout! Learn more

10-Day Weather Forecast

Advertisements
Track Severe Weather on mobile